Droylsden, United Kingdom
Current Conditions -  °F | °C
As of 8:50 AM on Friday 19 Dec 2014 (Local Time) from EGCC Reporting Station
Rain Showers Rain Showers  
Wind Chill:   Ceiling: Unl
Heat Index:   Visibility: 6mi
Dew Point:   Wind: 18mph
Humidity: 81%   Direction: 260°W
Pressure: 29.83"   Gusts: 30mph
Location:  53.48°N, 2.15°W
Report Text: EGCC 190850Z 26016G26KT 9999 -SHRA FEW010 SCT025 06/03 Q1010 RERA TEMPO SHRA
Loading
Personal Weather Stations






























Interactive Weather Map New forecast layout! Learn more

10-Day Weather Forecast

Advertisements
Track Severe Weather on mobile